sensor_id;sensor_type;location;lat;lon;timestamp;P1;durP1;ratioP1;P2;durP2;ratioP2
20711;SDS011;10517;50.742;4.224;2023-07-16T00:00:57;12.73;;;3.38;;
20711;SDS011;10517;50.742;4.224;2023-07-16T00:03:23;7.88;;;3.38;;
20711;SDS011;10517;50.742;4.224;2023-07-16T00:05:49;8.30;;;3.33;;
20711;SDS011;10517;50.742;4.224;2023-07-16T00:08:16;12.52;;;3.35;;
20711;SDS011;10517;50.742;4.224;2023-07-16T00:10:41;9.48;;;3.70;;
20711;SDS011;10517;50.742;4.224;2023-07-16T00:13:07;7.50;;;3.30;;
20711;SDS011;10517;50.742;4.224;2023-07-16T00:15:32;3.22;;;3.00;;
20711;SDS011;10517;50.742;4.224;2023-07-16T00:17:58;9.63;;;3.65;;
20711;SDS011;10517;50.742;4.224;2023-07-16T00:20:24;5.43;;;3.25;;
20711;SDS011;10517;50.742;4.224;2023-07-16T00:22:50;13.05;;;3.67;;
20711;SDS011;10517;50.742;4.224;2023-07-16T00:25:16;7.00;;;3.35;;
20711;SDS011;10517;50.742;4.224;2023-07-16T00:27:41;5.20;;;3.33;;
20711;SDS011;10517;50.742;4.224;2023-07-16T00:30:07;8.57;;;3.70;;
20711;SDS011;10517;50.742;4.224;2023-07-16T00:32:33;11.05;;;3.33;;
20711;SDS011;10517;50.742;4.224;2023-07-16T00:35:00;4.30;;;3.00;;
20711;SDS011;10517;50.742;4.224;2023-07-16T00:37:26;7.63;;;3.85;;
20711;SDS011;10517;50.742;4.224;2023-07-16T00:39:52;5.65;;;3.55;;
20711;SDS011;10517;50.742;4.224;2023-07-16T00:42:17;7.57;;;3.38;;
20711;SDS011;10517;50.742;4.224;2023-07-16T00:44:43;11.52;;;3.88;;
20711;SDS011;10517;50.742;4.224;2023-07-16T00:47:08;5.00;;;3.22;;
20711;SDS011;10517;50.742;4.224;2023-07-16T00:49:34;5.35;;;3.50;;
20711;SDS011;10517;50.742;4.224;2023-07-16T00:52:01;8.07;;;3.97;;
20711;SDS011;10517;50.742;4.224;2023-07-16T00:54:28;7.32;;;3.22;;
20711;SDS011;10517;50.742;4.224;2023-07-16T00:56:55;4.50;;;3.25;;
20711;SDS011;10517;50.742;4.224;2023-07-16T00:59:20;5.50;;;3.42;;
20711;SDS011;10517;50.742;4.224;2023-07-16T01:01:46;7.38;;;3.78;;
20711;SDS011;10517;50.742;4.224;2023-07-16T01:04:12;10.70;;;4.53;;
20711;SDS011;10517;50.742;4.224;2023-07-16T01:06:38;18.05;;;4.05;;
20711;SDS011;10517;50.742;4.224;2023-07-16T01:11:37;6.65;;;3.75;;
20711;SDS011;10517;50.742;4.224;2023-07-16T01:14:04;4.80;;;3.67;;
20711;SDS011;10517;50.742;4.224;2023-07-16T01:16:31;12.60;;;3.40;;
20711;SDS011;10517;50.742;4.224;2023-07-16T01:18:57;14.43;;;3.70;;
20711;SDS011;10517;50.742;4.224;2023-07-16T01:21:23;6.90;;;3.35;;
20711;SDS011;10517;50.742;4.224;2023-07-16T01:29:03;4.75;;;3.20;;
20711;SDS011;10517;50.742;4.224;2023-07-16T01:31:48;5.45;;;3.15;;
20711;SDS011;10517;50.742;4.224;2023-07-16T01:34:16;3.50;;;3.20;;
20711;SDS011;10517;50.742;4.224;2023-07-16T01:36:43;5.25;;;3.35;;
20711;SDS011;10517;50.742;4.224;2023-07-16T01:39:09;7.53;;;3.63;;
20711;SDS011;10517;50.742;4.224;2023-07-16T01:41:35;10.85;;;3.40;;
20711;SDS011;10517;50.742;4.224;2023-07-16T01:44:00;13.50;;;4.72;;
20711;SDS011;10517;50.742;4.224;2023-07-16T01:46:26;10.98;;;3.97;;
20711;SDS011;10517;50.742;4.224;2023-07-16T01:48:52;6.30;;;3.33;;
20711;SDS011;10517;50.742;4.224;2023-07-16T01:51:17;5.00;;;3.00;;
20711;SDS011;10517;50.742;4.224;2023-07-16T01:53:45;6.95;;;3.25;;
20711;SDS011;10517;50.742;4.224;2023-07-16T01:56:10;7.00;;;3.95;;
20711;SDS011;10517;50.742;4.224;2023-07-16T01:58:37;7.70;;;3.67;;
20711;SDS011;10517;50.742;4.224;2023-07-16T02:01:03;7.93;;;3.60;;
20711;SDS011;10517;50.742;4.224;2023-07-16T02:03:29;8.20;;;3.88;;
20711;SDS011;10517;50.742;4.224;2023-07-16T02:05:54;6.95;;;3.47;;
20711;SDS011;10517;50.742;4.224;2023-07-16T02:08:20;19.38;;;4.35;;
20711;SDS011;10517;50.742;4.224;2023-07-16T02:10:49;14.30;;;3.88;;
20711;SDS011;10517;50.742;4.224;2023-07-16T02:13:15;9.80;;;4.07;;
20711;SDS011;10517;50.742;4.224;2023-07-16T02:15:40;12.13;;;3.72;;
20711;SDS011;10517;50.742;4.224;2023-07-16T02:18:07;5.47;;;3.58;;
20711;SDS011;10517;50.742;4.224;2023-07-16T02:20:33;10.40;;;4.57;;
20711;SDS011;10517;50.742;4.224;2023-07-16T02:22:59;12.23;;;4.32;;
20711;SDS011;10517;50.742;4.224;2023-07-16T02:25:24;7.97;;;4.65;;
20711;SDS011;10517;50.742;4.224;2023-07-16T02:27:50;7.88;;;4.57;;
20711;SDS011;10517;50.742;4.224;2023-07-16T02:30:16;7.95;;;4.50;;
20711;SDS011;10517;50.742;4.224;2023-07-16T02:32:42;9.60;;;6.03;;
20711;SDS011;10517;50.742;4.224;2023-07-16T02:35:07;10.57;;;4.28;;
20711;SDS011;10517;50.742;4.224;2023-07-16T02:37:33;5.70;;;4.50;;
20711;SDS011;10517;50.742;4.224;2023-07-16T02:39:59;5.50;;;4.53;;
20711;SDS011;10517;50.742;4.224;2023-07-16T02:42:25;10.25;;;4.88;;
20711;SDS011;10517;50.742;4.224;2023-07-16T02:44:51;9.27;;;4.60;;
20711;SDS011;10517;50.742;4.224;2023-07-16T02:47:17;8.80;;;5.72;;
20711;SDS011;10517;50.742;4.224;2023-07-16T02:49:43;5.75;;;4.50;;
20711;SDS011;10517;50.742;4.224;2023-07-16T02:52:08;8.38;;;4.40;;
20711;SDS011;10517;50.742;4.224;2023-07-16T02:54:37;10.35;;;4.35;;
20711;SDS011;10517;50.742;4.224;2023-07-16T02:57:03;8.98;;;3.95;;
20711;SDS011;10517;50.742;4.224;2023-07-16T02:59:30;6.28;;;3.92;;
20711;SDS011;10517;50.742;4.224;2023-07-16T03:01:56;9.05;;;4.63;;
20711;SDS011;10517;50.742;4.224;2023-07-16T03:04:21;6.97;;;4.40;;
20711;SDS011;10517;50.742;4.224;2023-07-16T03:06:47;5.65;;;4.57;;
20711;SDS011;10517;50.742;4.224;2023-07-16T03:09:12;5.65;;;4.15;;
20711;SDS011;10517;50.742;4.224;2023-07-16T03:11:38;9.90;;;4.10;;
20711;SDS011;10517;50.742;4.224;2023-07-16T03:14:03;8.75;;;5.00;;
20711;SDS011;10517;50.742;4.224;2023-07-16T03:16:29;6.82;;;4.07;;
20711;SDS011;10517;50.742;4.224;2023-07-16T03:18:54;9.77;;;4.05;;
20711;SDS011;10517;50.742;4.224;2023-07-16T03:21:20;6.15;;;4.28;;
20711;SDS011;10517;50.742;4.224;2023-07-16T03:23:46;7.15;;;4.20;;
20711;SDS011;10517;50.742;4.224;2023-07-16T03:26:11;6.18;;;3.58;;
20711;SDS011;10517;50.742;4.224;2023-07-16T03:28:37;13.48;;;4.05;;
20711;SDS011;10517;50.742;4.224;2023-07-16T03:31:02;11.63;;;4.57;;
20711;SDS011;10517;50.742;4.224;2023-07-16T03:33:28;9.85;;;5.13;;
20711;SDS011;10517;50.742;4.224;2023-07-16T03:35:53;7.63;;;3.75;;
20711;SDS011;10517;50.742;4.224;2023-07-16T03:38:19;14.05;;;4.45;;
20711;SDS011;10517;50.742;4.224;2023-07-16T03:40:48;9.82;;;4.30;;
20711;SDS011;10517;50.742;4.224;2023-07-16T03:43:15;7.82;;;5.25;;
20711;SDS011;10517;50.742;4.224;2023-07-16T03:45:41;9.80;;;4.15;;
20711;SDS011;10517;50.742;4.224;2023-07-16T03:48:07;9.00;;;3.70;;
20711;SDS011;10517;50.742;4.224;2023-07-16T03:50:33;11.73;;;4.40;;
20711;SDS011;10517;50.742;4.224;2023-07-16T03:52:59;18.13;;;4.68;;
20711;SDS011;10517;50.742;4.224;2023-07-16T03:55:25;9.02;;;4.43;;
20711;SDS011;10517;50.742;4.224;2023-07-16T03:57:51;7.38;;;4.40;;
20711;SDS011;10517;50.742;4.224;2023-07-16T04:00:16;17.48;;;5.07;;
20711;SDS011;10517;50.742;4.224;2023-07-16T04:02:42;10.27;;;4.20;;
20711;SDS011;10517;50.742;4.224;2023-07-16T04:05:08;9.40;;;4.07;;
20711;SDS011;10517;50.742;4.224;2023-07-16T04:07:34;10.32;;;5.07;;
20711;SDS011;10517;50.742;4.224;2023-07-16T04:10:00;11.80;;;4.45;;
20711;SDS011;10517;50.742;4.224;2023-07-16T04:12:25;9.60;;;4.35;;
20711;SDS011;10517;50.742;4.224;2023-07-16T04:14:56;12.85;;;4.40;;
20711;SDS011;10517;50.742;4.224;2023-07-16T04:17:22;11.18;;;5.03;;
20711;SDS011;10517;50.742;4.224;2023-07-16T04:19:48;7.88;;;3.92;;
20711;SDS011;10517;50.742;4.224;2023-07-16T04:22:14;8.88;;;4.22;;
20711;SDS011;10517;50.742;4.224;2023-07-16T04:24:40;8.75;;;3.63;;
20711;SDS011;10517;50.742;4.224;2023-07-16T04:27:05;10.60;;;4.40;;
20711;SDS011;10517;50.742;4.224;2023-07-16T04:29:31;7.72;;;4.22;;
20711;SDS011;10517;50.742;4.224;2023-07-16T04:31:56;9.10;;;4.25;;
20711;SDS011;10517;50.742;4.224;2023-07-16T04:34:22;9.95;;;3.83;;
20711;SDS011;10517;50.742;4.224;2023-07-16T04:36:48;10.90;;;4.15;;
20711;SDS011;10517;50.742;4.224;2023-07-16T04:39:13;10.20;;;4.25;;
20711;SDS011;10517;50.742;4.224;2023-07-16T04:41:39;9.52;;;4.30;;
20711;SDS011;10517;50.742;4.224;2023-07-16T04:44:04;6.18;;;3.85;;
20711;SDS011;10517;50.742;4.224;2023-07-16T04:46:30;10.38;;;4.47;;
20711;SDS011;10517;50.742;4.224;2023-07-16T04:48:56;9.82;;;4.22;;
20711;SDS011;10517;50.742;4.224;2023-07-16T04:51:22;9.35;;;3.70;;
20711;SDS011;10517;50.742;4.224;2023-07-16T04:53:47;10.13;;;4.55;;
20711;SDS011;10517;50.742;4.224;2023-07-16T04:56:14;15.10;;;5.00;;
20711;SDS011;10517;50.742;4.224;2023-07-16T04:58:40;12.82;;;4.82;;
20711;SDS011;10517;50.742;4.224;2023-07-16T05:01:07;14.60;;;5.18;;
20711;SDS011;10517;50.742;4.224;2023-07-16T05:03:33;14.02;;;5.25;;
20711;SDS011;10517;50.742;4.224;2023-07-16T05:05:58;6.63;;;4.40;;
20711;SDS011;10517;50.742;4.224;2023-07-16T05:08:24;8.20;;;4.32;;
20711;SDS011;10517;50.742;4.224;2023-07-16T05:10:49;11.85;;;5.00;;
20711;SDS011;10517;50.742;4.224;2023-07-16T05:13:15;10.73;;;4.38;;
20711;SDS011;10517;50.742;4.224;2023-07-16T05:15:43;12.07;;;5.00;;
20711;SDS011;10517;50.742;4.224;2023-07-16T05:18:09;14.93;;;5.00;;
20711;SDS011;10517;50.742;4.224;2023-07-16T05:20:35;14.15;;;4.85;;
20711;SDS011;10517;50.742;4.224;2023-07-16T05:23:00;7.43;;;4.00;;
20711;SDS011;10517;50.742;4.224;2023-07-16T05:25:26;11.13;;;4.95;;
20711;SDS011;10517;50.742;4.224;2023-07-16T05:27:52;10.20;;;4.40;;
20711;SDS011;10517;50.742;4.224;2023-07-16T05:30:17;13.70;;;5.07;;
20711;SDS011;10517;50.742;4.224;2023-07-16T05:32:43;10.65;;;4.68;;
20711;SDS011;10517;50.742;4.224;2023-07-16T05:35:09;9.85;;;4.93;;
20711;SDS011;10517;50.742;4.224;2023-07-16T05:37:34;9.55;;;5.00;;
20711;SDS011;10517;50.742;4.224;2023-07-16T05:40:00;10.90;;;4.95;;
20711;SDS011;10517;50.742;4.224;2023-07-16T05:42:26;15.63;;;5.57;;
20711;SDS011;10517;50.742;4.224;2023-07-16T05:44:51;12.05;;;5.43;;
20711;SDS011;10517;50.742;4.224;2023-07-16T05:47:17;12.65;;;5.13;;
20711;SDS011;10517;50.742;4.224;2023-07-16T05:49:42;9.15;;;4.60;;
20711;SDS011;10517;50.742;4.224;2023-07-16T05:52:08;10.10;;;4.68;;
20711;SDS011;10517;50.742;4.224;2023-07-16T05:54:34;11.88;;;5.32;;
20711;SDS011;10517;50.742;4.224;2023-07-16T05:57:00;13.98;;;5.90;;
20711;SDS011;10517;50.742;4.224;2023-07-16T05:59:25;13.25;;;4.72;;
20711;SDS011;10517;50.742;4.224;2023-07-16T06:01:51;15.45;;;5.22;;
20711;SDS011;10517;50.742;4.224;2023-07-16T06:04:17;8.93;;;4.85;;
20711;SDS011;10517;50.742;4.224;2023-07-16T06:06:42;9.15;;;4.38;;
20711;SDS011;10517;50.742;4.224;2023-07-16T06:09:08;8.35;;;4.80;;
20711;SDS011;10517;50.742;4.224;2023-07-16T06:11:34;14.02;;;4.70;;
20711;SDS011;10517;50.742;4.224;2023-07-16T06:13:59;7.03;;;4.55;;
20711;SDS011;10517;50.742;4.224;2023-07-16T06:16:25;8.02;;;4.68;;
20711;SDS011;10517;50.742;4.224;2023-07-16T06:18:50;12.25;;;4.85;;
20711;SDS011;10517;50.742;4.224;2023-07-16T06:21:16;9.18;;;5.10;;
20711;SDS011;10517;50.742;4.224;2023-07-16T06:23:42;9.27;;;6.05;;
20711;SDS011;10517;50.742;4.224;2023-07-16T06:26:08;12.25;;;5.78;;
20711;SDS011;10517;50.742;4.224;2023-07-16T06:28:33;9.82;;;5.18;;
20711;SDS011;10517;50.742;4.224;2023-07-16T06:30:59;9.27;;;5.03;;
20711;SDS011;10517;50.742;4.224;2023-07-16T06:33:24;11.00;;;5.53;;
20711;SDS011;10517;50.742;4.224;2023-07-16T06:35:52;12.10;;;6.03;;
20711;SDS011;10517;50.742;4.224;2023-07-16T06:38:17;11.13;;;5.25;;
20711;SDS011;10517;50.742;4.224;2023-07-16T06:40:46;10.95;;;5.93;;
20711;SDS011;10517;50.742;4.224;2023-07-16T06:43:13;11.93;;;5.03;;
20711;SDS011;10517;50.742;4.224;2023-07-16T06:45:39;11.18;;;4.72;;
20711;SDS011;10517;50.742;4.224;2023-07-16T06:48:04;11.10;;;5.15;;
20711;SDS011;10517;50.742;4.224;2023-07-16T06:50:30;7.85;;;4.78;;
20711;SDS011;10517;50.742;4.224;2023-07-16T06:52:56;10.20;;;5.63;;
20711;SDS011;10517;50.742;4.224;2023-07-16T06:55:21;9.98;;;5.28;;
20711;SDS011;10517;50.742;4.224;2023-07-16T06:57:47;13.32;;;5.28;;
20711;SDS011;10517;50.742;4.224;2023-07-16T07:00:12;8.07;;;4.40;;
20711;SDS011;10517;50.742;4.224;2023-07-16T07:02:38;7.75;;;5.32;;
20711;SDS011;10517;50.742;4.224;2023-07-16T07:05:04;10.85;;;6.00;;
20711;SDS011;10517;50.742;4.224;2023-07-16T07:07:30;17.88;;;5.32;;
20711;SDS011;10517;50.742;4.224;2023-07-16T07:09:55;9.48;;;4.85;;
20711;SDS011;10517;50.742;4.224;2023-07-16T07:12:21;14.05;;;5.15;;
20711;SDS011;10517;50.742;4.224;2023-07-16T07:14:47;10.10;;;5.00;;
20711;SDS011;10517;50.742;4.224;2023-07-16T07:17:13;12.57;;;5.90;;
20711;SDS011;10517;50.742;4.224;2023-07-16T07:19:39;16.13;;;5.05;;
20711;SDS011;10517;50.742;4.224;2023-07-16T07:22:04;13.65;;;5.80;;
20711;SDS011;10517;50.742;4.224;2023-07-16T07:24:30;10.23;;;5.85;;
20711;SDS011;10517;50.742;4.224;2023-07-16T07:26:55;12.13;;;6.10;;
20711;SDS011;10517;50.742;4.224;2023-07-16T07:29:21;16.13;;;5.82;;
20711;SDS011;10517;50.742;4.224;2023-07-16T07:31:47;10.82;;;5.38;;
20711;SDS011;10517;50.742;4.224;2023-07-16T07:34:12;12.23;;;5.47;;
20711;SDS011;10517;50.742;4.224;2023-07-16T07:36:38;10.05;;;4.70;;
20711;SDS011;10517;50.742;4.224;2023-07-16T07:39:03;9.57;;;5.55;;
20711;SDS011;10517;50.742;4.224;2023-07-16T07:41:29;8.10;;;5.05;;
20711;SDS011;10517;50.742;4.224;2023-07-16T07:43:54;9.27;;;5.47;;
20711;SDS011;10517;50.742;4.224;2023-07-16T07:46:20;12.07;;;5.40;;
20711;SDS011;10517;50.742;4.224;2023-07-16T07:48:46;9.35;;;4.70;;
20711;SDS011;10517;50.742;4.224;2023-07-16T07:51:11;10.77;;;5.55;;
20711;SDS011;10517;50.742;4.224;2023-07-16T07:53:37;9.30;;;5.32;;
20711;SDS011;10517;50.742;4.224;2023-07-16T07:56:02;9.40;;;5.13;;
20711;SDS011;10517;50.742;4.224;2023-07-16T07:58:28;9.52;;;5.97;;
20711;SDS011;10517;50.742;4.224;2023-07-16T08:00:53;9.60;;;5.28;;
20711;SDS011;10517;50.742;4.224;2023-07-16T08:03:19;8.27;;;5.30;;
20711;SDS011;10517;50.742;4.224;2023-07-16T08:05:47;11.40;;;5.53;;
20711;SDS011;10517;50.742;4.224;2023-07-16T08:08:14;10.15;;;5.38;;
20711;SDS011;10517;50.742;4.224;2023-07-16T08:10:39;7.03;;;5.43;;
20711;SDS011;10517;50.742;4.224;2023-07-16T08:13:05;7.95;;;5.43;;
20711;SDS011;10517;50.742;4.224;2023-07-16T08:15:31;9.35;;;5.22;;
20711;SDS011;10517;50.742;4.224;2023-07-16T08:17:57;8.65;;;5.20;;
20711;SDS011;10517;50.742;4.224;2023-07-16T08:20:24;7.10;;;5.22;;
20711;SDS011;10517;50.742;4.224;2023-07-16T08:22:50;6.30;;;4.20;;
20711;SDS011;10517;50.742;4.224;2023-07-16T08:25:16;7.90;;;5.30;;
20711;SDS011;10517;50.742;4.224;2023-07-16T08:27:42;8.20;;;5.03;;
20711;SDS011;10517;50.742;4.224;2023-07-16T08:30:07;9.73;;;4.60;;
20711;SDS011;10517;50.742;4.224;2023-07-16T08:32:33;10.73;;;4.88;;
20711;SDS011;10517;50.742;4.224;2023-07-16T08:34:59;7.93;;;5.20;;
20711;SDS011;10517;50.742;4.224;2023-07-16T08:37:24;5.22;;;4.30;;
20711;SDS011;10517;50.742;4.224;2023-07-16T08:39:51;7.63;;;4.85;;
20711;SDS011;10517;50.742;4.224;2023-07-16T08:42:18;10.27;;;5.57;;
20711;SDS011;10517;50.742;4.224;2023-07-16T08:44:44;9.68;;;5.10;;
20711;SDS011;10517;50.742;4.224;2023-07-16T08:47:10;5.50;;;4.55;;
20711;SDS011;10517;50.742;4.224;2023-07-16T08:49:35;7.38;;;5.07;;
20711;SDS011;10517;50.742;4.224;2023-07-16T08:52:03;7.20;;;4.68;;
20711;SDS011;10517;50.742;4.224;2023-07-16T08:54:30;8.85;;;5.53;;
20711;SDS011;10517;50.742;4.224;2023-07-16T08:56:55;10.13;;;5.57;;
20711;SDS011;10517;50.742;4.224;2023-07-16T08:59:22;8.73;;;5.82;;
20711;SDS011;10517;50.742;4.224;2023-07-16T09:01:47;9.48;;;5.38;;
20711;SDS011;10517;50.742;4.224;2023-07-16T09:04:14;5.65;;;5.05;;
20711;SDS011;10517;50.742;4.224;2023-07-16T09:06:40;8.07;;;5.30;;
20711;SDS011;10517;50.742;4.224;2023-07-16T09:09:06;5.30;;;4.80;;
20711;SDS011;10517;50.742;4.224;2023-07-16T09:11:32;5.90;;;5.15;;
20711;SDS011;10517;50.742;4.224;2023-07-16T09:14:01;9.55;;;5.65;;
20711;SDS011;10517;50.742;4.224;2023-07-16T09:16:27;6.57;;;5.43;;
20711;SDS011;10517;50.742;4.224;2023-07-16T09:18:58;6.50;;;5.32;;
20711;SDS011;10517;50.742;4.224;2023-07-16T09:21:31;6.57;;;4.88;;
20711;SDS011;10517;50.742;4.224;2023-07-16T09:23:59;8.45;;;5.75;;
20711;SDS011;10517;50.742;4.224;2023-07-16T09:26:25;6.47;;;5.18;;
20711;SDS011;10517;50.742;4.224;2023-07-16T09:28:50;12.98;;;5.75;;
20711;SDS011;10517;50.742;4.224;2023-07-16T09:31:16;9.30;;;5.10;;
20711;SDS011;10517;50.742;4.224;2023-07-16T09:33:42;9.38;;;5.93;;
20711;SDS011;10517;50.742;4.224;2023-07-16T09:36:12;7.72;;;5.40;;
20711;SDS011;10517;50.742;4.224;2023-07-16T09:38:37;7.53;;;5.93;;
20711;SDS011;10517;50.742;4.224;2023-07-16T09:41:03;11.02;;;5.82;;
20711;SDS011;10517;50.742;4.224;2023-07-16T09:43:30;9.75;;;5.88;;
20711;SDS011;10517;50.742;4.224;2023-07-16T09:45:58;8.45;;;6.15;;
20711;SDS011;10517;50.742;4.224;2023-07-16T09:48:24;9.93;;;5.57;;
20711;SDS011;10517;50.742;4.224;2023-07-16T09:50:50;10.68;;;6.13;;
20711;SDS011;10517;50.742;4.224;2023-07-16T09:53:18;8.07;;;5.78;;
20711;SDS011;10517;50.742;4.224;2023-07-16T09:55:45;8.80;;;5.47;;
20711;SDS011;10517;50.742;4.224;2023-07-16T09:58:13;9.73;;;5.47;;
20711;SDS011;10517;50.742;4.224;2023-07-16T10:00:39;6.97;;;5.65;;
20711;SDS011;10517;50.742;4.224;2023-07-16T10:03:07;6.18;;;5.47;;
20711;SDS011;10517;50.742;4.224;2023-07-16T10:05:35;8.15;;;5.10;;
20711;SDS011;10517;50.742;4.224;2023-07-16T10:08:02;8.45;;;5.85;;
20711;SDS011;10517;50.742;4.224;2023-07-16T10:10:41;8.52;;;5.32;;
20711;SDS011;10517;50.742;4.224;2023-07-16T10:13:14;12.88;;;5.55;;
20711;SDS011;10517;50.742;4.224;2023-07-16T10:15:50;8.00;;;5.45;;
20711;SDS011;10517;50.742;4.224;2023-07-16T10:20:49;7.22;;;5.80;;
20711;SDS011;10517;50.742;4.224;2023-07-16T10:23:17;9.82;;;5.72;;
20711;SDS011;10517;50.742;4.224;2023-07-16T10:26:02;10.07;;;6.07;;
20711;SDS011;10517;50.742;4.224;2023-07-16T10:28:33;6.22;;;5.40;;
20711;SDS011;10517;50.742;4.224;2023-07-16T10:30:59;8.50;;;5.90;;
20711;SDS011;10517;50.742;4.224;2023-07-16T10:33:25;5.35;;;4.88;;
20711;SDS011;10517;50.742;4.224;2023-07-16T10:35:50;6.97;;;5.40;;
20711;SDS011;10517;50.742;4.224;2023-07-16T10:38:16;5.25;;;4.75;;
20711;SDS011;10517;50.742;4.224;2023-07-16T10:40:45;7.88;;;5.45;;
20711;SDS011;10517;50.742;4.224;2023-07-16T10:43:11;6.72;;;5.18;;
20711;SDS011;10517;50.742;4.224;2023-07-16T10:45:39;6.18;;;5.45;;
20711;SDS011;10517;50.742;4.224;2023-07-16T10:48:05;5.90;;;5.38;;
20711;SDS011;10517;50.742;4.224;2023-07-16T10:50:34;9.75;;;5.18;;
20711;SDS011;10517;50.742;4.224;2023-07-16T10:53:00;7.70;;;5.80;;
20711;SDS011;10517;50.742;4.224;2023-07-16T10:55:27;6.22;;;5.40;;
20711;SDS011;10517;50.742;4.224;2023-07-16T10:57:53;7.88;;;6.15;;
20711;SDS011;10517;50.742;4.224;2023-07-16T11:00:20;6.20;;;5.05;;
20711;SDS011;10517;50.742;4.224;2023-07-16T11:02:47;7.05;;;5.38;;
20711;SDS011;10517;50.742;4.224;2023-07-16T11:05:15;7.38;;;5.53;;
20711;SDS011;10517;50.742;4.224;2023-07-16T11:07:48;10.57;;;5.78;;
20711;SDS011;10517;50.742;4.224;2023-07-16T11:10:15;7.93;;;5.80;;
20711;SDS011;10517;50.742;4.224;2023-07-16T11:12:41;7.68;;;5.20;;
20711;SDS011;10517;50.742;4.224;2023-07-16T11:15:07;5.32;;;4.80;;
20711;SDS011;10517;50.742;4.224;2023-07-16T11:17:33;8.82;;;4.82;;
20711;SDS011;10517;50.742;4.224;2023-07-16T11:20:02;5.95;;;5.53;;
20711;SDS011;10517;50.742;4.224;2023-07-16T11:22:29;5.25;;;4.75;;
20711;SDS011;10517;50.742;4.224;2023-07-16T11:24:54;8.18;;;5.65;;
20711;SDS011;10517;50.742;4.224;2023-07-16T11:27:25;8.07;;;5.30;;
20711;SDS011;10517;50.742;4.224;2023-07-16T11:35:04;7.70;;;4.90;;
20711;SDS011;10517;50.742;4.224;2023-07-16T11:37:31;7.55;;;5.50;;
20711;SDS011;10517;50.742;4.224;2023-07-16T11:40:07;6.65;;;5.55;;
20711;SDS011;10517;50.742;4.224;2023-07-16T11:42:38;7.68;;;5.13;;
20711;SDS011;10517;50.742;4.224;2023-07-16T11:45:05;10.95;;;6.22;;
20711;SDS011;10517;50.742;4.224;2023-07-16T11:47:39;5.72;;;4.70;;
20711;SDS011;10517;50.742;4.224;2023-07-16T11:50:05;5.65;;;4.53;;
20711;SDS011;10517;50.742;4.224;2023-07-16T11:52:32;7.30;;;5.75;;
20711;SDS011;10517;50.742;4.224;2023-07-16T11:54:58;8.15;;;5.63;;
20711;SDS011;10517;50.742;4.224;2023-07-16T11:57:29;6.47;;;5.63;;
20711;SDS011;10517;50.742;4.224;2023-07-16T11:59:55;6.63;;;5.90;;
20711;SDS011;10517;50.742;4.224;2023-07-16T12:02:20;5.82;;;5.40;;
20711;SDS011;10517;50.742;4.224;2023-07-16T12:04:46;8.55;;;5.55;;
20711;SDS011;10517;50.742;4.224;2023-07-16T12:07:12;9.02;;;5.38;;
20711;SDS011;10517;50.742;4.224;2023-07-16T12:09:38;6.57;;;6.00;;
20711;SDS011;10517;50.742;4.224;2023-07-16T12:12:04;9.63;;;5.30;;
20711;SDS011;10517;50.742;4.224;2023-07-16T12:14:30;6.38;;;5.00;;
20711;SDS011;10517;50.742;4.224;2023-07-16T12:16:56;9.50;;;5.35;;
20711;SDS011;10517;50.742;4.224;2023-07-16T12:19:21;5.68;;;5.25;;
20711;SDS011;10517;50.742;4.224;2023-07-16T12:21:47;5.43;;;5.03;;
20711;SDS011;10517;50.742;4.224;2023-07-16T12:24:12;10.05;;;6.43;;
20711;SDS011;10517;50.742;4.224;2023-07-16T12:26:38;6.38;;;5.45;;
20711;SDS011;10517;50.742;4.224;2023-07-16T12:29:04;5.80;;;5.30;;
20711;SDS011;10517;50.742;4.224;2023-07-16T12:31:33;10.40;;;6.22;;
20711;SDS011;10517;50.742;4.224;2023-07-16T12:33:59;6.28;;;5.72;;
20711;SDS011;10517;50.742;4.224;2023-07-16T12:36:27;7.18;;;5.70;;
20711;SDS011;10517;50.742;4.224;2023-07-16T12:38:52;6.90;;;5.65;;
20711;SDS011;10517;50.742;4.224;2023-07-16T12:41:18;6.43;;;5.82;;
20711;SDS011;10517;50.742;4.224;2023-07-16T12:43:43;6.68;;;5.78;;
20711;SDS011;10517;50.742;4.224;2023-07-16T12:46:10;9.30;;;6.05;;
20711;SDS011;10517;50.742;4.224;2023-07-16T12:48:35;7.22;;;5.10;;
20711;SDS011;10517;50.742;4.224;2023-07-16T12:51:01;5.80;;;5.47;;
20711;SDS011;10517;50.742;4.224;2023-07-16T12:53:26;5.63;;;5.20;;
20711;SDS011;10517;50.742;4.224;2023-07-16T12:55:53;6.30;;;5.70;;
20711;SDS011;10517;50.742;4.224;2023-07-16T12:58:18;6.65;;;6.13;;
20711;SDS011;10517;50.742;4.224;2023-07-16T13:00:44;5.72;;;5.32;;
20711;SDS011;10517;50.742;4.224;2023-07-16T13:03:10;6.00;;;5.45;;
20711;SDS011;10517;50.742;4.224;2023-07-16T13:05:37;6.13;;;5.65;;
20711;SDS011;10517;50.742;4.224;2023-07-16T13:08:03;5.68;;;5.20;;
20711;SDS011;10517;50.742;4.224;2023-07-16T13:10:29;6.00;;;5.40;;
20711;SDS011;10517;50.742;4.224;2023-07-16T13:12:55;6.35;;;5.85;;
20711;SDS011;10517;50.742;4.224;2023-07-16T13:15:20;5.80;;;5.32;;
20711;SDS011;10517;50.742;4.224;2023-07-16T13:17:46;8.65;;;5.40;;
20711;SDS011;10517;50.742;4.224;2023-07-16T13:20:12;10.82;;;9.52;;
20711;SDS011;10517;50.742;4.224;2023-07-16T13:22:38;9.88;;;9.23;;
20711;SDS011;10517;50.742;4.224;2023-07-16T13:25:04;8.52;;;7.80;;
20711;SDS011;10517;50.742;4.224;2023-07-16T13:27:30;7.68;;;7.03;;
20711;SDS011;10517;50.742;4.224;2023-07-16T13:29:55;7.68;;;7.07;;
20711;SDS011;10517;50.742;4.224;2023-07-16T13:32:21;6.55;;;5.90;;
20711;SDS011;10517;50.742;4.224;2023-07-16T13:34:46;8.02;;;5.22;;
20711;SDS011;10517;50.742;4.224;2023-07-16T13:37:12;5.18;;;4.80;;
20711;SDS011;10517;50.742;4.224;2023-07-16T13:39:39;4.65;;;4.20;;
20711;SDS011;10517;50.742;4.224;2023-07-16T13:42:04;3.70;;;3.50;;
20711;SDS011;10517;50.742;4.224;2023-07-16T13:44:31;4.28;;;3.88;;
20711;SDS011;10517;50.742;4.224;2023-07-16T13:46:59;4.63;;;4.22;;
20711;SDS011;10517;50.742;4.224;2023-07-16T13:49:25;5.85;;;4.82;;
20711;SDS011;10517;50.742;4.224;2023-07-16T13:51:50;5.70;;;5.30;;
20711;SDS011;10517;50.742;4.224;2023-07-16T13:54:16;6.53;;;5.75;;
20711;SDS011;10517;50.742;4.224;2023-07-16T13:56:42;8.05;;;5.85;;
20711;SDS011;10517;50.742;4.224;2023-07-16T13:59:07;6.00;;;5.32;;
20711;SDS011;10517;50.742;4.224;2023-07-16T14:01:37;6.10;;;5.60;;
20711;SDS011;10517;50.742;4.224;2023-07-16T14:04:04;7.07;;;6.20;;
20711;SDS011;10517;50.742;4.224;2023-07-16T14:06:29;7.05;;;6.28;;
20711;SDS011;10517;50.742;4.224;2023-07-16T14:08:55;6.90;;;6.28;;
20711;SDS011;10517;50.742;4.224;2023-07-16T14:11:22;7.80;;;7.10;;
20711;SDS011;10517;50.742;4.224;2023-07-16T14:13:48;7.15;;;6.45;;
20711;SDS011;10517;50.742;4.224;2023-07-16T14:16:16;6.63;;;5.97;;
20711;SDS011;10517;50.742;4.224;2023-07-16T14:18:42;6.70;;;6.28;;
20711;SDS011;10517;50.742;4.224;2023-07-16T14:21:08;6.30;;;6.00;;
20711;SDS011;10517;50.742;4.224;2023-07-16T14:23:33;5.65;;;5.45;;
20711;SDS011;10517;50.742;4.224;2023-07-16T14:25:59;5.60;;;5.30;;
20711;SDS011;10517;50.742;4.224;2023-07-16T14:28:24;6.25;;;5.88;;
20711;SDS011;10517;50.742;4.224;2023-07-16T14:30:50;5.22;;;5.03;;
20711;SDS011;10517;50.742;4.224;2023-07-16T14:33:15;5.50;;;5.20;;
20711;SDS011;10517;50.742;4.224;2023-07-16T14:35:41;5.40;;;4.90;;
20711;SDS011;10517;50.742;4.224;2023-07-16T14:38:07;5.82;;;5.43;;
20711;SDS011;10517;50.742;4.224;2023-07-16T14:40:33;5.13;;;4.93;;
20711;SDS011;10517;50.742;4.224;2023-07-16T14:42:58;5.30;;;5.00;;
20711;SDS011;10517;50.742;4.224;2023-07-16T14:45:24;5.20;;;4.93;;
20711;SDS011;10517;50.742;4.224;2023-07-16T14:47:50;5.10;;;4.90;;
20711;SDS011;10517;50.742;4.224;2023-07-16T14:50:15;5.55;;;5.15;;
20711;SDS011;10517;50.742;4.224;2023-07-16T14:52:41;5.65;;;5.20;;